sensor_id;sensor_type;location;lat;lon;timestamp;P1;durP1;ratioP1;P2;durP2;ratioP2
14516;SDS011;7344;50.864;4.362;2023-05-16T00:02:15;15.23;;;3.33;;
14516;SDS011;7344;50.864;4.362;2023-05-16T00:04:41;18.43;;;3.13;;
14516;SDS011;7344;50.864;4.362;2023-05-16T00:07:06;16.87;;;3.93;;
14516;SDS011;7344;50.864;4.362;2023-05-16T00:09:32;15.33;;;3.60;;
14516;SDS011;7344;50.864;4.362;2023-05-16T00:11:57;20.17;;;4.00;;
14516;SDS011;7344;50.864;4.362;2023-05-16T00:14:23;15.10;;;3.03;;
14516;SDS011;7344;50.864;4.362;2023-05-16T00:16:51;12.60;;;2.90;;
14516;SDS011;7344;50.864;4.362;2023-05-16T00:19:17;12.87;;;3.30;;
14516;SDS011;7344;50.864;4.362;2023-05-16T00:21:44;13.73;;;3.57;;
14516;SDS011;7344;50.864;4.362;2023-05-16T00:24:10;14.63;;;3.07;;
14516;SDS011;7344;50.864;4.362;2023-05-16T00:26:35;15.47;;;3.20;;
14516;SDS011;7344;50.864;4.362;2023-05-16T00:29:01;11.47;;;3.10;;
14516;SDS011;7344;50.864;4.362;2023-05-16T00:31:26;16.33;;;3.30;;
14516;SDS011;7344;50.864;4.362;2023-05-16T00:33:52;19.30;;;3.30;;
14516;SDS011;7344;50.864;4.362;2023-05-16T00:36:18;15.97;;;3.30;;
14516;SDS011;7344;50.864;4.362;2023-05-16T00:38:45;13.70;;;3.53;;
14516;SDS011;7344;50.864;4.362;2023-05-16T00:41:11;11.63;;;3.00;;
14516;SDS011;7344;50.864;4.362;2023-05-16T00:43:37;20.40;;;3.20;;
14516;SDS011;7344;50.864;4.362;2023-05-16T00:46:03;15.30;;;3.23;;
14516;SDS011;7344;50.864;4.362;2023-05-16T00:48:29;16.30;;;3.60;;
14516;SDS011;7344;50.864;4.362;2023-05-16T00:50:55;18.20;;;3.53;;
14516;SDS011;7344;50.864;4.362;2023-05-16T00:53:20;13.93;;;3.43;;
14516;SDS011;7344;50.864;4.362;2023-05-16T00:55:47;14.63;;;3.60;;
14516;SDS011;7344;50.864;4.362;2023-05-16T00:58:13;13.20;;;3.17;;
14516;SDS011;7344;50.864;4.362;2023-05-16T01:00:40;13.33;;;3.27;;
14516;SDS011;7344;50.864;4.362;2023-05-16T01:03:06;17.80;;;3.50;;
14516;SDS011;7344;50.864;4.362;2023-05-16T01:05:32;14.60;;;2.97;;
14516;SDS011;7344;50.864;4.362;2023-05-16T01:07:58;12.03;;;3.13;;
14516;SDS011;7344;50.864;4.362;2023-05-16T01:10:23;16.20;;;3.73;;
14516;SDS011;7344;50.864;4.362;2023-05-16T01:13:00;18.60;;;3.77;;
14516;SDS011;7344;50.864;4.362;2023-05-16T01:15:35;16.50;;;3.23;;
14516;SDS011;7344;50.864;4.362;2023-05-16T01:18:20;16.27;;;3.80;;
14516;SDS011;7344;50.864;4.362;2023-05-16T01:20:55;13.07;;;3.27;;
14516;SDS011;7344;50.864;4.362;2023-05-16T01:26:26;16.53;;;3.20;;
14516;SDS011;7344;50.864;4.362;2023-05-16T01:28:54;13.93;;;3.57;;
14516;SDS011;7344;50.864;4.362;2023-05-16T01:31:21;16.50;;;3.00;;
14516;SDS011;7344;50.864;4.362;2023-05-16T01:33:47;10.17;;;3.20;;
14516;SDS011;7344;50.864;4.362;2023-05-16T01:39:01;13.07;;;3.37;;
14516;SDS011;7344;50.864;4.362;2023-05-16T01:44:22;13.00;;;3.40;;
14516;SDS011;7344;50.864;4.362;2023-05-16T01:47:00;15.73;;;3.40;;
14516;SDS011;7344;50.864;4.362;2023-05-16T01:49:39;14.53;;;3.67;;
14516;SDS011;7344;50.864;4.362;2023-05-16T01:54:52;15.60;;;3.57;;
14516;SDS011;7344;50.864;4.362;2023-05-16T01:57:20;20.00;;;4.00;;
14516;SDS011;7344;50.864;4.362;2023-05-16T01:59:49;17.60;;;3.90;;
14516;SDS011;7344;50.864;4.362;2023-05-16T02:02:18;18.00;;;3.63;;
14516;SDS011;7344;50.864;4.362;2023-05-16T02:04:44;16.63;;;3.57;;
14516;SDS011;7344;50.864;4.362;2023-05-16T02:07:10;13.77;;;3.73;;
14516;SDS011;7344;50.864;4.362;2023-05-16T02:09:38;18.63;;;3.67;;
14516;SDS011;7344;50.864;4.362;2023-05-16T02:12:04;15.33;;;3.57;;
14516;SDS011;7344;50.864;4.362;2023-05-16T02:14:29;12.80;;;3.07;;
14516;SDS011;7344;50.864;4.362;2023-05-16T02:16:55;18.07;;;4.03;;
14516;SDS011;7344;50.864;4.362;2023-05-16T02:19:21;14.93;;;3.57;;
14516;SDS011;7344;50.864;4.362;2023-05-16T02:21:47;19.43;;;3.93;;
14516;SDS011;7344;50.864;4.362;2023-05-16T02:24:12;18.17;;;3.90;;
14516;SDS011;7344;50.864;4.362;2023-05-16T02:26:38;16.17;;;3.60;;
14516;SDS011;7344;50.864;4.362;2023-05-16T02:29:04;13.00;;;3.50;;
14516;SDS011;7344;50.864;4.362;2023-05-16T02:31:45;13.20;;;3.53;;
14516;SDS011;7344;50.864;4.362;2023-05-16T02:34:11;22.10;;;3.97;;
14516;SDS011;7344;50.864;4.362;2023-05-16T02:36:37;15.07;;;3.50;;
14516;SDS011;7344;50.864;4.362;2023-05-16T02:39:02;15.77;;;3.43;;
14516;SDS011;7344;50.864;4.362;2023-05-16T02:41:28;11.70;;;3.60;;
14516;SDS011;7344;50.864;4.362;2023-05-16T02:43:54;13.33;;;3.60;;
14516;SDS011;7344;50.864;4.362;2023-05-16T02:46:23;17.43;;;3.93;;
14516;SDS011;7344;50.864;4.362;2023-05-16T02:48:54;13.53;;;3.47;;
14516;SDS011;7344;50.864;4.362;2023-05-16T02:51:20;15.37;;;4.23;;
14516;SDS011;7344;50.864;4.362;2023-05-16T02:53:48;18.13;;;3.77;;
14516;SDS011;7344;50.864;4.362;2023-05-16T02:56:14;17.33;;;3.50;;
14516;SDS011;7344;50.864;4.362;2023-05-16T02:58:40;16.03;;;3.90;;
14516;SDS011;7344;50.864;4.362;2023-05-16T03:01:06;17.40;;;3.50;;
14516;SDS011;7344;50.864;4.362;2023-05-16T03:03:32;10.87;;;3.73;;
14516;SDS011;7344;50.864;4.362;2023-05-16T03:06:01;16.17;;;3.87;;
14516;SDS011;7344;50.864;4.362;2023-05-16T03:08:27;20.83;;;4.13;;
14516;SDS011;7344;50.864;4.362;2023-05-16T03:10:53;14.53;;;4.27;;
14516;SDS011;7344;50.864;4.362;2023-05-16T03:13:18;12.67;;;3.87;;
14516;SDS011;7344;50.864;4.362;2023-05-16T03:15:44;21.33;;;4.40;;
14516;SDS011;7344;50.864;4.362;2023-05-16T03:18:10;21.10;;;4.47;;
14516;SDS011;7344;50.864;4.362;2023-05-16T03:20:36;14.27;;;3.60;;
14516;SDS011;7344;50.864;4.362;2023-05-16T03:23:02;17.13;;;4.20;;
14516;SDS011;7344;50.864;4.362;2023-05-16T03:25:31;13.47;;;4.50;;
14516;SDS011;7344;50.864;4.362;2023-05-16T03:27:57;17.80;;;4.17;;
14516;SDS011;7344;50.864;4.362;2023-05-16T03:30:23;17.87;;;4.17;;
14516;SDS011;7344;50.864;4.362;2023-05-16T03:32:50;18.27;;;4.50;;
14516;SDS011;7344;50.864;4.362;2023-05-16T03:35:16;18.37;;;4.37;;
14516;SDS011;7344;50.864;4.362;2023-05-16T03:37:41;14.60;;;4.13;;
14516;SDS011;7344;50.864;4.362;2023-05-16T03:40:07;11.27;;;3.80;;
14516;SDS011;7344;50.864;4.362;2023-05-16T03:42:33;17.77;;;4.03;;
14516;SDS011;7344;50.864;4.362;2023-05-16T03:44:59;18.60;;;4.53;;
14516;SDS011;7344;50.864;4.362;2023-05-16T03:47:25;21.23;;;4.10;;
14516;SDS011;7344;50.864;4.362;2023-05-16T03:49:54;15.60;;;3.90;;
14516;SDS011;7344;50.864;4.362;2023-05-16T03:52:20;15.47;;;4.07;;
14516;SDS011;7344;50.864;4.362;2023-05-16T03:54:46;19.43;;;4.67;;
14516;SDS011;7344;50.864;4.362;2023-05-16T03:57:12;17.77;;;4.00;;
14516;SDS011;7344;50.864;4.362;2023-05-16T03:59:37;18.63;;;4.50;;
14516;SDS011;7344;50.864;4.362;2023-05-16T04:02:03;14.17;;;4.80;;
14516;SDS011;7344;50.864;4.362;2023-05-16T04:04:30;15.67;;;5.13;;
14516;SDS011;7344;50.864;4.362;2023-05-16T04:06:55;23.17;;;5.30;;
14516;SDS011;7344;50.864;4.362;2023-05-16T04:09:21;18.35;;;4.65;;
14516;SDS011;7344;50.864;4.362;2023-05-16T04:11:46;29.00;;;5.43;;
14516;SDS011;7344;50.864;4.362;2023-05-16T04:14:12;25.43;;;5.13;;
14516;SDS011;7344;50.864;4.362;2023-05-16T04:16:39;16.80;;;4.67;;
14516;SDS011;7344;50.864;4.362;2023-05-16T04:19:05;16.40;;;4.07;;
14516;SDS011;7344;50.864;4.362;2023-05-16T04:21:31;21.03;;;5.83;;
14516;SDS011;7344;50.864;4.362;2023-05-16T04:23:57;22.60;;;5.07;;
14516;SDS011;7344;50.864;4.362;2023-05-16T04:26:23;13.63;;;4.07;;
14516;SDS011;7344;50.864;4.362;2023-05-16T04:28:49;18.20;;;4.20;;
14516;SDS011;7344;50.864;4.362;2023-05-16T04:31:15;15.43;;;3.53;;
14516;SDS011;7344;50.864;4.362;2023-05-16T04:33:41;18.67;;;4.13;;
14516;SDS011;7344;50.864;4.362;2023-05-16T04:36:06;20.43;;;4.53;;
14516;SDS011;7344;50.864;4.362;2023-05-16T04:38:32;16.00;;;3.60;;
14516;SDS011;7344;50.864;4.362;2023-05-16T04:40:58;14.50;;;3.90;;
14516;SDS011;7344;50.864;4.362;2023-05-16T04:43:24;9.97;;;3.47;;
14516;SDS011;7344;50.864;4.362;2023-05-16T04:45:50;12.07;;;3.20;;
14516;SDS011;7344;50.864;4.362;2023-05-16T04:48:17;13.77;;;3.60;;
14516;SDS011;7344;50.864;4.362;2023-05-16T04:50:43;15.23;;;3.33;;
14516;SDS011;7344;50.864;4.362;2023-05-16T04:53:09;9.60;;;3.00;;
14516;SDS011;7344;50.864;4.362;2023-05-16T04:55:36;12.40;;;3.33;;
14516;SDS011;7344;50.864;4.362;2023-05-16T04:58:02;11.43;;;3.43;;
14516;SDS011;7344;50.864;4.362;2023-05-16T05:00:27;12.60;;;3.33;;
14516;SDS011;7344;50.864;4.362;2023-05-16T05:02:53;10.73;;;3.70;;
14516;SDS011;7344;50.864;4.362;2023-05-16T05:05:19;11.73;;;3.75;;
14516;SDS011;7344;50.864;4.362;2023-05-16T05:07:45;10.07;;;2.85;;
14516;SDS011;7344;50.864;4.362;2023-05-16T05:10:13;11.30;;;3.25;;
14516;SDS011;7344;50.864;4.362;2023-05-16T05:12:39;11.57;;;3.10;;
14516;SDS011;7344;50.864;4.362;2023-05-16T05:15:05;6.90;;;2.53;;
14516;SDS011;7344;50.864;4.362;2023-05-16T05:17:31;8.20;;;3.08;;
14516;SDS011;7344;50.864;4.362;2023-05-16T05:19:56;10.20;;;2.97;;
14516;SDS011;7344;50.864;4.362;2023-05-16T05:22:22;10.93;;;3.08;;
14516;SDS011;7344;50.864;4.362;2023-05-16T05:24:47;9.70;;;2.80;;
14516;SDS011;7344;50.864;4.362;2023-05-16T05:27:13;5.68;;;2.53;;
14516;SDS011;7344;50.864;4.362;2023-05-16T05:29:39;7.03;;;3.00;;
14516;SDS011;7344;50.864;4.362;2023-05-16T05:32:05;7.97;;;2.38;;
14516;SDS011;7344;50.864;4.362;2023-05-16T05:34:30;10.18;;;2.80;;
14516;SDS011;7344;50.864;4.362;2023-05-16T05:36:56;10.48;;;3.40;;
14516;SDS011;7344;50.864;4.362;2023-05-16T05:39:23;9.70;;;3.10;;
14516;SDS011;7344;50.864;4.362;2023-05-16T05:41:48;10.73;;;2.95;;
14516;SDS011;7344;50.864;4.362;2023-05-16T05:44:15;9.55;;;2.70;;
14516;SDS011;7344;50.864;4.362;2023-05-16T05:46:40;11.43;;;3.35;;
14516;SDS011;7344;50.864;4.362;2023-05-16T05:49:06;11.23;;;3.00;;
14516;SDS011;7344;50.864;4.362;2023-05-16T05:51:32;6.65;;;2.60;;
14516;SDS011;7344;50.864;4.362;2023-05-16T05:53:58;9.30;;;2.75;;
14516;SDS011;7344;50.864;4.362;2023-05-16T05:56:23;9.70;;;3.20;;
14516;SDS011;7344;50.864;4.362;2023-05-16T05:58:49;11.98;;;3.15;;
14516;SDS011;7344;50.864;4.362;2023-05-16T06:01:18;8.27;;;2.75;;
14516;SDS011;7344;50.864;4.362;2023-05-16T06:03:45;11.52;;;2.75;;
14516;SDS011;7344;50.864;4.362;2023-05-16T06:06:11;5.53;;;2.30;;
14516;SDS011;7344;50.864;4.362;2023-05-16T06:08:36;8.27;;;2.53;;
14516;SDS011;7344;50.864;4.362;2023-05-16T06:11:02;9.35;;;2.90;;
14516;SDS011;7344;50.864;4.362;2023-05-16T06:13:28;5.50;;;2.38;;
14516;SDS011;7344;50.864;4.362;2023-05-16T06:15:53;7.57;;;3.10;;
14516;SDS011;7344;50.864;4.362;2023-05-16T06:18:19;7.85;;;2.33;;
14516;SDS011;7344;50.864;4.362;2023-05-16T06:20:45;4.55;;;2.10;;
14516;SDS011;7344;50.864;4.362;2023-05-16T06:23:11;6.97;;;2.70;;
14516;SDS011;7344;50.864;4.362;2023-05-16T06:25:37;5.32;;;2.58;;
14516;SDS011;7344;50.864;4.362;2023-05-16T06:28:02;6.03;;;2.50;;
14516;SDS011;7344;50.864;4.362;2023-05-16T06:30:28;8.77;;;3.38;;
14516;SDS011;7344;50.864;4.362;2023-05-16T06:32:53;7.95;;;2.75;;
14516;SDS011;7344;50.864;4.362;2023-05-16T06:35:19;7.43;;;2.20;;
14516;SDS011;7344;50.864;4.362;2023-05-16T06:37:45;7.05;;;2.35;;
14516;SDS011;7344;50.864;4.362;2023-05-16T06:40:10;5.88;;;2.40;;
14516;SDS011;7344;50.864;4.362;2023-05-16T06:42:36;5.45;;;2.60;;
14516;SDS011;7344;50.864;4.362;2023-05-16T06:45:02;7.45;;;2.42;;
14516;SDS011;7344;50.864;4.362;2023-05-16T06:47:28;9.43;;;3.33;;
14516;SDS011;7344;50.864;4.362;2023-05-16T06:49:54;7.97;;;3.05;;
14516;SDS011;7344;50.864;4.362;2023-05-16T06:52:19;5.60;;;2.30;;
14516;SDS011;7344;50.864;4.362;2023-05-16T06:54:45;8.73;;;2.70;;
14516;SDS011;7344;50.864;4.362;2023-05-16T06:57:11;8.48;;;2.40;;
14516;SDS011;7344;50.864;4.362;2023-05-16T06:59:37;8.93;;;2.65;;
14516;SDS011;7344;50.864;4.362;2023-05-16T07:02:03;6.60;;;2.60;;
14516;SDS011;7344;50.864;4.362;2023-05-16T07:04:29;7.50;;;2.50;;
14516;SDS011;7344;50.864;4.362;2023-05-16T07:06:55;8.63;;;3.03;;
14516;SDS011;7344;50.864;4.362;2023-05-16T07:09:21;7.05;;;2.67;;
14516;SDS011;7344;50.864;4.362;2023-05-16T07:11:47;7.28;;;2.30;;
14516;SDS011;7344;50.864;4.362;2023-05-16T07:14:12;8.20;;;2.80;;
14516;SDS011;7344;50.864;4.362;2023-05-16T07:16:38;8.65;;;2.80;;
14516;SDS011;7344;50.864;4.362;2023-05-16T07:19:04;9.73;;;2.90;;
14516;SDS011;7344;50.864;4.362;2023-05-16T07:21:29;8.93;;;2.35;;
14516;SDS011;7344;50.864;4.362;2023-05-16T07:23:55;7.63;;;2.78;;
14516;SDS011;7344;50.864;4.362;2023-05-16T07:26:21;6.20;;;2.53;;
14516;SDS011;7344;50.864;4.362;2023-05-16T07:28:51;9.05;;;3.05;;
14516;SDS011;7344;50.864;4.362;2023-05-16T07:31:16;5.65;;;2.38;;
14516;SDS011;7344;50.864;4.362;2023-05-16T07:33:43;7.68;;;3.00;;
14516;SDS011;7344;50.864;4.362;2023-05-16T07:36:11;9.30;;;2.30;;
14516;SDS011;7344;50.864;4.362;2023-05-16T07:38:37;5.07;;;1.90;;
14516;SDS011;7344;50.864;4.362;2023-05-16T07:41:03;5.88;;;1.80;;
14516;SDS011;7344;50.864;4.362;2023-05-16T07:43:28;8.82;;;2.13;;
14516;SDS011;7344;50.864;4.362;2023-05-16T07:45:54;5.40;;;2.45;;
14516;SDS011;7344;50.864;4.362;2023-05-16T07:48:19;7.28;;;2.50;;
14516;SDS011;7344;50.864;4.362;2023-05-16T07:50:45;7.07;;;2.50;;
14516;SDS011;7344;50.864;4.362;2023-05-16T07:53:11;8.40;;;2.15;;
14516;SDS011;7344;50.864;4.362;2023-05-16T07:55:37;3.33;;;1.70;;
14516;SDS011;7344;50.864;4.362;2023-05-16T07:58:02;6.75;;;2.20;;
14516;SDS011;7344;50.864;4.362;2023-05-16T08:00:28;6.00;;;2.40;;
14516;SDS011;7344;50.864;4.362;2023-05-16T08:02:54;3.58;;;2.13;;
14516;SDS011;7344;50.864;4.362;2023-05-16T08:05:21;6.18;;;1.90;;
14516;SDS011;7344;50.864;4.362;2023-05-16T08:07:48;9.07;;;2.75;;
14516;SDS011;7344;50.864;4.362;2023-05-16T08:10:14;2.97;;;1.63;;
14516;SDS011;7344;50.864;4.362;2023-05-16T08:12:40;4.45;;;1.60;;
14516;SDS011;7344;50.864;4.362;2023-05-16T08:15:05;3.13;;;1.98;;
14516;SDS011;7344;50.864;4.362;2023-05-16T08:17:32;7.43;;;2.13;;
14516;SDS011;7344;50.864;4.362;2023-05-16T08:19:57;5.65;;;2.28;;
14516;SDS011;7344;50.864;4.362;2023-05-16T08:22:25;10.82;;;2.60;;
14516;SDS011;7344;50.864;4.362;2023-05-16T08:24:51;7.18;;;2.78;;
14516;SDS011;7344;50.864;4.362;2023-05-16T08:27:21;7.85;;;1.80;;
14516;SDS011;7344;50.864;4.362;2023-05-16T08:29:56;5.75;;;1.58;;
14516;SDS011;7344;50.864;4.362;2023-05-16T08:32:21;5.47;;;1.90;;
14516;SDS011;7344;50.864;4.362;2023-05-16T08:34:47;6.57;;;2.15;;
14516;SDS011;7344;50.864;4.362;2023-05-16T08:37:13;4.35;;;1.80;;
14516;SDS011;7344;50.864;4.362;2023-05-16T08:39:38;8.02;;;2.60;;
14516;SDS011;7344;50.864;4.362;2023-05-16T08:42:04;7.35;;;2.10;;
14516;SDS011;7344;50.864;4.362;2023-05-16T08:44:30;4.53;;;3.08;;
14516;SDS011;7344;50.864;4.362;2023-05-16T08:46:56;6.05;;;1.88;;
14516;SDS011;7344;50.864;4.362;2023-05-16T08:49:28;10.02;;;2.67;;
14516;SDS011;7344;50.864;4.362;2023-05-16T08:51:55;7.07;;;2.10;;
14516;SDS011;7344;50.864;4.362;2023-05-16T08:54:22;6.90;;;1.80;;
14516;SDS011;7344;50.864;4.362;2023-05-16T08:56:48;6.73;;;2.30;;
14516;SDS011;7344;50.864;4.362;2023-05-16T08:59:14;5.07;;;1.90;;
14516;SDS011;7344;50.864;4.362;2023-05-16T09:01:40;5.43;;;1.60;;
14516;SDS011;7344;50.864;4.362;2023-05-16T09:04:06;6.50;;;1.55;;
14516;SDS011;7344;50.864;4.362;2023-05-16T09:06:36;7.20;;;2.20;;
14516;SDS011;7344;50.864;4.362;2023-05-16T09:09:02;5.32;;;2.25;;
14516;SDS011;7344;50.864;4.362;2023-05-16T09:11:29;9.20;;;2.10;;
14516;SDS011;7344;50.864;4.362;2023-05-16T09:13:54;6.90;;;2.65;;
14516;SDS011;7344;50.864;4.362;2023-05-16T09:16:20;2.95;;;1.80;;
14516;SDS011;7344;50.864;4.362;2023-05-16T09:18:52;5.40;;;2.00;;
14516;SDS011;7344;50.864;4.362;2023-05-16T09:21:21;5.35;;;1.77;;
14516;SDS011;7344;50.864;4.362;2023-05-16T09:24:01;6.35;;;1.90;;
14516;SDS011;7344;50.864;4.362;2023-05-16T09:26:34;7.15;;;2.42;;
14516;SDS011;7344;50.864;4.362;2023-05-16T09:29:01;5.88;;;1.73;;
14516;SDS011;7344;50.864;4.362;2023-05-16T09:31:35;6.55;;;1.70;;
14516;SDS011;7344;50.864;4.362;2023-05-16T09:34:03;6.75;;;1.70;;
14516;SDS011;7344;50.864;4.362;2023-05-16T09:36:31;3.80;;;1.60;;
14516;SDS011;7344;50.864;4.362;2023-05-16T09:38:57;5.50;;;1.38;;
14516;SDS011;7344;50.864;4.362;2023-05-16T09:41:23;5.53;;;1.85;;
14516;SDS011;7344;50.864;4.362;2023-05-16T09:43:48;3.20;;;1.75;;
14516;SDS011;7344;50.864;4.362;2023-05-16T09:46:14;3.90;;;1.98;;
14516;SDS011;7344;50.864;4.362;2023-05-16T09:48:43;3.80;;;2.30;;
14516;SDS011;7344;50.864;4.362;2023-05-16T09:51:10;4.97;;;1.92;;
14516;SDS011;7344;50.864;4.362;2023-05-16T09:53:37;4.47;;;1.75;;
14516;SDS011;7344;50.864;4.362;2023-05-16T09:56:04;3.83;;;1.58;;
14516;SDS011;7344;50.864;4.362;2023-05-16T09:58:38;4.65;;;1.70;;
14516;SDS011;7344;50.864;4.362;2023-05-16T10:01:05;4.18;;;1.80;;
14516;SDS011;7344;50.864;4.362;2023-05-16T10:03:35;7.18;;;1.83;;
14516;SDS011;7344;50.864;4.362;2023-05-16T10:06:03;3.97;;;2.10;;
14516;SDS011;7344;50.864;4.362;2023-05-16T10:08:32;2.72;;;1.38;;
14516;SDS011;7344;50.864;4.362;2023-05-16T10:11:00;4.60;;;1.70;;
14516;SDS011;7344;50.864;4.362;2023-05-16T10:13:28;3.15;;;1.63;;
14516;SDS011;7344;50.864;4.362;2023-05-16T10:15:55;3.90;;;1.45;;
14516;SDS011;7344;50.864;4.362;2023-05-16T10:18:29;5.20;;;1.85;;
14516;SDS011;7344;50.864;4.362;2023-05-16T10:20:57;4.45;;;1.95;;
14516;SDS011;7344;50.864;4.362;2023-05-16T10:23:30;4.55;;;1.50;;
14516;SDS011;7344;50.864;4.362;2023-05-16T10:25:57;3.42;;;1.50;;
14516;SDS011;7344;50.864;4.362;2023-05-16T10:28:24;3.38;;;1.48;;
14516;SDS011;7344;50.864;4.362;2023-05-16T10:30:53;2.35;;;1.75;;
14516;SDS011;7344;50.864;4.362;2023-05-16T10:33:20;4.43;;;1.83;;
14516;SDS011;7344;50.864;4.362;2023-05-16T10:35:46;5.10;;;1.77;;
14516;SDS011;7344;50.864;4.362;2023-05-16T10:38:13;4.22;;;2.47;;
14516;SDS011;7344;50.864;4.362;2023-05-16T10:40:41;5.13;;;1.77;;
14516;SDS011;7344;50.864;4.362;2023-05-16T10:43:07;3.17;;;1.50;;
14516;SDS011;7344;50.864;4.362;2023-05-16T10:45:34;3.53;;;1.80;;
14516;SDS011;7344;50.864;4.362;2023-05-16T10:48:06;5.60;;;1.98;;
14516;SDS011;7344;50.864;4.362;2023-05-16T10:58:45;6.95;;;2.45;;
14516;SDS011;7344;50.864;4.362;2023-05-16T11:01:23;3.83;;;2.10;;
14516;SDS011;7344;50.864;4.362;2023-05-16T11:06:30;3.70;;;1.92;;
14516;SDS011;7344;50.864;4.362;2023-05-16T11:09:23;3.97;;;3.03;;
14516;SDS011;7344;50.864;4.362;2023-05-16T11:12:01;2.78;;;1.75;;
14516;SDS011;7344;50.864;4.362;2023-05-16T11:24:33;4.38;;;2.17;;
14516;SDS011;7344;50.864;4.362;2023-05-16T11:27:01;3.20;;;1.90;;
14516;SDS011;7344;50.864;4.362;2023-05-16T11:29:28;3.30;;;1.77;;
14516;SDS011;7344;50.864;4.362;2023-05-16T11:31:57;5.85;;;2.38;;
14516;SDS011;7344;50.864;4.362;2023-05-16T11:34:24;9.73;;;2.78;;
14516;SDS011;7344;50.864;4.362;2023-05-16T11:36:50;5.63;;;2.30;;
14516;SDS011;7344;50.864;4.362;2023-05-16T11:39:16;4.93;;;2.08;;
14516;SDS011;7344;50.864;4.362;2023-05-16T11:41:43;5.38;;;1.67;;
14516;SDS011;7344;50.864;4.362;2023-05-16T11:44:10;4.75;;;1.90;;
14516;SDS011;7344;50.864;4.362;2023-05-16T11:46:38;4.22;;;1.73;;
14516;SDS011;7344;50.864;4.362;2023-05-16T11:49:05;4.55;;;1.80;;
14516;SDS011;7344;50.864;4.362;2023-05-16T11:51:31;8.15;;;2.25;;
14516;SDS011;7344;50.864;4.362;2023-05-16T11:53:58;11.30;;;2.72;;
14516;SDS011;7344;50.864;4.362;2023-05-16T11:56:25;7.53;;;1.90;;
14516;SDS011;7344;50.864;4.362;2023-05-16T11:58:51;6.32;;;2.00;;
14516;SDS011;7344;50.864;4.362;2023-05-16T12:01:17;3.28;;;1.85;;
14516;SDS011;7344;50.864;4.362;2023-05-16T12:03:43;4.38;;;1.80;;
14516;SDS011;7344;50.864;4.362;2023-05-16T12:06:09;9.40;;;2.50;;
14516;SDS011;7344;50.864;4.362;2023-05-16T12:08:34;9.27;;;2.58;;
14516;SDS011;7344;50.864;4.362;2023-05-16T12:11:00;4.47;;;2.10;;
14516;SDS011;7344;50.864;4.362;2023-05-16T12:13:26;3.05;;;1.85;;
14516;SDS011;7344;50.864;4.362;2023-05-16T12:15:52;5.35;;;1.95;;
14516;SDS011;7344;50.864;4.362;2023-05-16T12:18:18;2.80;;;1.48;;
14516;SDS011;7344;50.864;4.362;2023-05-16T12:20:45;5.93;;;2.53;;
14516;SDS011;7344;50.864;4.362;2023-05-16T12:23:11;8.38;;;2.05;;
14516;SDS011;7344;50.864;4.362;2023-05-16T12:25:38;7.63;;;3.35;;
14516;SDS011;7344;50.864;4.362;2023-05-16T12:28:10;4.45;;;2.00;;
14516;SDS011;7344;50.864;4.362;2023-05-16T12:30:39;6.20;;;1.58;;
14516;SDS011;7344;50.864;4.362;2023-05-16T12:33:07;3.47;;;1.40;;
14516;SDS011;7344;50.864;4.362;2023-05-16T12:35:38;2.55;;;1.50;;
14516;SDS011;7344;50.864;4.362;2023-05-16T12:38:06;4.13;;;1.73;;
14516;SDS011;7344;50.864;4.362;2023-05-16T12:40:33;3.97;;;1.52;;
14516;SDS011;7344;50.864;4.362;2023-05-16T12:43:01;2.83;;;1.65;;
14516;SDS011;7344;50.864;4.362;2023-05-16T12:45:26;4.25;;;3.03;;
14516;SDS011;7344;50.864;4.362;2023-05-16T12:47:52;3.20;;;1.67;;
14516;SDS011;7344;50.864;4.362;2023-05-16T12:50:18;5.65;;;2.05;;
14516;SDS011;7344;50.864;4.362;2023-05-16T12:52:50;3.25;;;1.35;;
14516;SDS011;7344;50.864;4.362;2023-05-16T12:55:17;3.40;;;1.55;;
14516;SDS011;7344;50.864;4.362;2023-05-16T12:57:45;4.72;;;1.40;;
14516;SDS011;7344;50.864;4.362;2023-05-16T13:00:12;5.63;;;1.83;;
14516;SDS011;7344;50.864;4.362;2023-05-16T13:02:39;2.83;;;1.50;;
14516;SDS011;7344;50.864;4.362;2023-05-16T13:05:05;3.78;;;1.75;;
14516;SDS011;7344;50.864;4.362;2023-05-16T13:07:37;4.93;;;1.50;;
14516;SDS011;7344;50.864;4.362;2023-05-16T13:10:07;6.30;;;1.42;;
14516;SDS011;7344;50.864;4.362;2023-05-16T13:12:36;3.05;;;1.55;;
14516;SDS011;7344;50.864;4.362;2023-05-16T13:15:03;4.22;;;2.08;;
14516;SDS011;7344;50.864;4.362;2023-05-16T13:17:31;5.90;;;1.40;;
14516;SDS011;7344;50.864;4.362;2023-05-16T13:19:57;9.27;;;1.80;;
14516;SDS011;7344;50.864;4.362;2023-05-16T13:22:23;2.83;;;1.90;;
14516;SDS011;7344;50.864;4.362;2023-05-16T13:24:49;4.22;;;1.50;;
14516;SDS011;7344;50.864;4.362;2023-05-16T13:27:15;4.75;;;2.45;;
14516;SDS011;7344;50.864;4.362;2023-05-16T13:29:41;3.55;;;1.70;;
14516;SDS011;7344;50.864;4.362;2023-05-16T13:32:07;5.80;;;2.55;;
14516;SDS011;7344;50.864;4.362;2023-05-16T13:34:33;5.03;;;1.48;;
14516;SDS011;7344;50.864;4.362;2023-05-16T13:36:59;4.43;;;1.50;;
14516;SDS011;7344;50.864;4.362;2023-05-16T13:39:25;4.78;;;1.48;;
14516;SDS011;7344;50.864;4.362;2023-05-16T13:41:51;7.68;;;1.45;;
14516;SDS011;7344;50.864;4.362;2023-05-16T13:44:16;8.02;;;1.80;;
14516;SDS011;7344;50.864;4.362;2023-05-16T13:46:42;6.00;;;1.90;;
14516;SDS011;7344;50.864;4.362;2023-05-16T13:49:08;5.57;;;1.95;;
14516;SDS011;7344;50.864;4.362;2023-05-16T13:51:34;4.95;;;1.63;;
14516;SDS011;7344;50.864;4.362;2023-05-16T13:54:00;7.85;;;1.80;;
14516;SDS011;7344;50.864;4.362;2023-05-16T13:56:25;3.13;;;1.60;;
14516;SDS011;7344;50.864;4.362;2023-05-16T13:58:51;6.18;;;1.95;;
14516;SDS011;7344;50.864;4.362;2023-05-16T14:01:17;5.25;;;1.75;;
14516;SDS011;7344;50.864;4.362;2023-05-16T14:03:42;3.28;;;2.30;;
14516;SDS011;7344;50.864;4.362;2023-05-16T14:06:08;3.67;;;1.67;;
14516;SDS011;7344;50.864;4.362;2023-05-16T14:08:34;2.65;;;1.63;;
14516;SDS011;7344;50.864;4.362;2023-05-16T14:11:00;6.47;;;2.00;;
14516;SDS011;7344;50.864;4.362;2023-05-16T14:13:25;2.08;;;1.17;;
14516;SDS011;7344;50.864;4.362;2023-05-16T14:15:51;3.63;;;2.00;;
14516;SDS011;7344;50.864;4.362;2023-05-16T14:18:16;3.00;;;1.50;;
14516;SDS011;7344;50.864;4.362;2023-05-16T14:20:42;3.33;;;1.53;;
14516;SDS011;7344;50.864;4.362;2023-05-16T14:23:08;5.13;;;1.67;;
14516;SDS011;7344;50.864;4.362;2023-05-16T14:25:33;4.60;;;1.37;;
14516;SDS011;7344;50.864;4.362;2023-05-16T14:27:59;4.63;;;1.73;;
14516;SDS011;7344;50.864;4.362;2023-05-16T14:30:24;3.33;;;1.35;;
14516;SDS011;7344;50.864;4.362;2023-05-16T14:32:51;3.35;;;1.50;;
14516;SDS011;7344;50.864;4.362;2023-05-16T14:35:16;2.80;;;1.50;;
14516;SDS011;7344;50.864;4.362;2023-05-16T14:37:42;3.97;;;1.58;;
14516;SDS011;7344;50.864;4.362;2023-05-16T14:40:08;4.13;;;1.48;;
14516;SDS011;7344;50.864;4.362;2023-05-16T14:42:34;4.40;;;1.52;;
14516;SDS011;7344;50.864;4.362;2023-05-16T14:45:00;3.58;;;1.70;;
14516;SDS011;7344;50.864;4.362;2023-05-16T14:47:26;2.75;;;1.20;;
14516;SDS011;7344;50.864;4.362;2023-05-16T14:49:53;3.30;;;1.50;;
14516;SDS011;7344;50.864;4.362;2023-05-16T14:52:20;4.13;;;1.50;;
14516;SDS011;7344;50.864;4.362;2023-05-16T14:54:45;2.40;;;1.23;;
14516;SDS011;7344;50.864;4.362;2023-05-16T14:57:11;4.03;;;1.50;;
14516;SDS011;7344;50.864;4.362;2023-05-16T14:59:37;5.78;;;1.20;;
14516;SDS011;7344;50.864;4.362;2023-05-16T15:02:02;2.75;;;1.05;;
14516;SDS011;7344;50.864;4.362;2023-05-16T15:04:28;3.77;;;1.53;;
14516;SDS011;7344;50.864;4.362;2023-05-16T15:06:54;2.37;;;1.33;;
14516;SDS011;7344;50.864;4.362;2023-05-16T15:09:20;6.23;;;1.50;;
14516;SDS011;7344;50.864;4.362;2023-05-16T15:11:46;2.00;;;1.33;;
14516;SDS011;7344;50.864;4.362;2023-05-16T15:14:11;7.00;;;1.70;;
14516;SDS011;7344;50.864;4.362;2023-05-16T15:16:37;3.23;;;1.60;;
14516;SDS011;7344;50.864;4.362;2023-05-16T15:19:02;2.93;;;1.07;;
14516;SDS011;7344;50.864;4.362;2023-05-16T15:21:28;4.73;;;1.40;;
14516;SDS011;7344;50.864;4.362;2023-05-16T15:23:56;2.83;;;2.07;;
14516;SDS011;7344;50.864;4.362;2023-05-16T15:26:22;3.77;;;1.70;;